createdAt,value
2018-09-27T00:02:23.952Z,59.60
2018-09-27T00:04:51.759Z,59.70
2018-09-27T00:07:19.531Z,59.90
2018-09-27T00:09:47.225Z,61.40
2018-09-27T00:12:14.929Z,59.60
2018-09-27T00:14:42.579Z,59.10
2018-09-27T00:17:10.464Z,59.00
2018-09-27T00:19:38.962Z,58.50
2018-09-27T00:22:06.638Z,58.60
2018-09-27T00:24:34.295Z,59.10
2018-09-27T00:27:02.110Z,59.70
2018-09-27T00:29:29.798Z,59.10
2018-09-27T00:31:57.440Z,59.40
2018-09-27T00:34:25.091Z,59.40
2018-09-27T00:36:52.797Z,60.70
2018-09-27T00:39:20.494Z,59.50
2018-09-27T00:41:48.169Z,59.50
2018-09-27T00:44:15.887Z,59.40
2018-09-27T00:46:43.540Z,60.10
2018-09-27T00:49:11.451Z,59.90
2018-09-27T00:51:39.135Z,59.50
2018-09-27T00:54:07.236Z,59.60
2018-09-27T00:56:35.335Z,60.10
2018-09-27T00:59:03.113Z,59.50
2018-09-27T01:01:30.755Z,59.60
2018-09-27T01:03:58.460Z,60.20
2018-09-27T01:06:26.106Z,60.10
2018-09-27T01:08:54.186Z,60.60
2018-09-27T01:11:21.917Z,60.90
2018-09-27T01:13:49.597Z,61.30
2018-09-27T01:16:17.267Z,60.90
2018-09-27T01:18:44.962Z,60.70
2018-09-27T01:21:12.616Z,60.70
2018-09-27T01:23:40.368Z,61.10
2018-09-27T01:26:08.036Z,62.50
2018-09-27T01:28:35.754Z,62.30
2018-09-27T01:31:03.406Z,61.90
2018-09-27T01:33:31.029Z,61.60
2018-09-27T01:35:58.898Z,61.30
2018-09-27T01:38:26.934Z,60.70
2018-09-27T01:40:55.075Z,60.50
2018-09-27T01:43:23.238Z,61.30
2018-09-27T01:45:51.257Z,61.90
2018-09-27T01:48:19.284Z,62.30
2018-09-27T01:50:47.400Z,63.50
2018-09-27T01:53:15.588Z,64.10
2018-09-27T01:55:43.483Z,64.70
2018-09-27T01:58:11.476Z,65.40
2018-09-27T02:00:39.619Z,66.90
2018-09-27T02:03:07.637Z,67.00
2018-09-27T02:05:35.749Z,67.20
2018-09-27T02:08:03.831Z,67.10
2018-09-27T02:10:31.852Z,66.90
2018-09-27T02:12:59.795Z,67.00
2018-09-27T02:15:27.833Z,67.00
2018-09-27T02:17:55.913Z,66.20
2018-09-27T02:20:24.077Z,65.40
2018-09-27T02:22:52.215Z,65.40
2018-09-27T02:25:20.286Z,64.30
2018-09-27T02:27:48.397Z,64.00
2018-09-27T02:30:16.346Z,65.20
2018-09-27T02:32:44.357Z,64.20
2018-09-27T02:35:12.424Z,63.70
2018-09-27T02:37:40.640Z,65.00
2018-09-27T02:40:09.657Z,62.70
2018-09-27T02:42:37.688Z,62.60
2018-09-27T02:45:06.994Z,63.00
2018-09-27T02:47:35.286Z,65.60
2018-09-27T02:50:03.394Z,67.10
2018-09-27T02:52:31.471Z,65.00
2018-09-27T02:54:59.494Z,65.90
2018-09-27T02:57:27.535Z,66.70
2018-09-27T02:59:55.698Z,64.80
2018-09-27T03:02:23.733Z,65.20
2018-09-27T03:04:52.075Z,64.60
2018-09-27T03:07:20.442Z,64.90
2018-09-27T03:09:48.514Z,63.70
2018-09-27T03:12:16.504Z,62.10
2018-09-27T03:14:44.518Z,61.90
2018-09-27T03:17:12.536Z,61.90
2018-09-27T03:19:40.606Z,64.40
2018-09-27T03:22:09.296Z,61.70
2018-09-27T03:24:37.500Z,62.00
2018-09-27T03:27:05.881Z,61.60
2018-09-27T03:29:34.085Z,61.30
2018-09-27T03:32:02.058Z,62.30
2018-09-27T03:34:30.298Z,62.80
2018-09-27T03:36:58.653Z,61.60
2018-09-27T03:39:26.934Z,61.50
2018-09-27T03:41:55.175Z,63.40
2018-09-27T03:44:23.318Z,62.10
2018-09-27T03:46:51.644Z,62.40
2018-09-27T03:49:19.665Z,62.70
2018-09-27T03:51:47.704Z,62.80
2018-09-27T03:54:15.750Z,62.10
2018-09-27T03:56:43.820Z,61.10
2018-09-27T03:59:11.921Z,62.00
2018-09-27T04:01:39.906Z,63.70
2018-09-27T04:04:07.999Z,62.80
2018-09-27T04:06:36.190Z,62.00
2018-09-27T04:09:06.300Z,62.50
2018-09-27T04:11:34.320Z,63.20
2018-09-27T04:14:02.626Z,63.80
2018-09-27T04:16:30.782Z,62.70
2018-09-27T04:18:58.819Z,63.70
2018-09-27T04:21:26.589Z,63.40
2018-09-27T04:23:54.330Z,64.10
2018-09-27T04:26:21.987Z,64.90
2018-09-27T04:28:49.716Z,67.90
2018-09-27T04:31:17.558Z,66.10
2018-09-27T04:33:45.218Z,63.30
2018-09-27T04:36:13.239Z,63.60
2018-09-27T04:38:40.885Z,63.90
2018-09-27T04:41:08.853Z,64.60
2018-09-27T04:43:36.561Z,65.80
2018-09-27T04:46:04.456Z,67.40
2018-09-27T04:48:32.146Z,64.30
2018-09-27T04:50:59.846Z,64.90
2018-09-27T04:53:27.481Z,64.90
2018-09-27T04:55:55.131Z,65.40
2018-09-27T04:58:22.823Z,65.20
2018-09-27T05:00:50.525Z,65.40
2018-09-27T05:03:18.350Z,65.60
2018-09-27T05:05:46.136Z,66.30
2018-09-27T05:08:13.826Z,66.20
2018-09-27T05:10:41.748Z,66.30
2018-09-27T05:13:10.473Z,66.60
2018-09-27T05:15:38.563Z,66.70
2018-09-27T05:18:06.246Z,66.70
2018-09-27T05:20:34.080Z,67.80
2018-09-27T05:23:01.685Z,67.00
2018-09-27T05:25:29.453Z,66.90
2018-09-27T05:27:57.270Z,67.70
2018-09-27T05:30:25.048Z,66.60
2018-09-27T05:32:52.790Z,66.80
2018-09-27T05:35:20.488Z,67.00
2018-09-27T05:37:48.172Z,68.00
2018-09-27T05:40:16.414Z,69.10
2018-09-27T05:42:45.114Z,69.90
2018-09-27T05:45:12.950Z,70.20
2018-09-27T05:47:40.684Z,68.20
2018-09-27T05:50:08.757Z,68.60
2018-09-27T05:52:36.678Z,68.40
2018-09-27T05:55:04.328Z,67.30
2018-09-27T05:57:32.446Z,66.80
2018-09-27T06:00:00.444Z,66.50
2018-09-27T06:02:28.169Z,66.00
2018-09-27T06:04:55.847Z,66.50
2018-09-27T06:07:23.534Z,66.80
2018-09-27T06:09:51.617Z,65.60
2018-09-27T06:12:19.497Z,64.70
2018-09-27T06:14:47.212Z,65.40
2018-09-27T06:17:15.127Z,66.80
2018-09-27T06:19:42.846Z,67.10
2018-09-27T06:22:10.484Z,67.30
2018-09-27T06:24:38.128Z,68.90
2018-09-27T06:27:06.262Z,69.90
2018-09-27T06:29:33.980Z,68.70
2018-09-27T06:32:01.637Z,66.00
2018-09-27T06:34:29.594Z,64.00
2018-09-27T06:36:57.298Z,62.20
2018-09-27T06:39:24.961Z,60.10
2018-09-27T06:41:52.700Z,59.40
2018-09-27T06:44:20.363Z,58.10
2018-09-27T06:46:47.994Z,56.90
2018-09-27T06:49:15.710Z,55.50
2018-09-27T06:51:43.408Z,54.10
2018-09-27T06:54:11.045Z,54.30
2018-09-27T06:56:38.825Z,53.50
2018-09-27T06:59:06.404Z,51.40
2018-09-27T07:01:33.996Z,50.90
2018-09-27T07:04:01.956Z,50.60
2018-09-27T07:06:29.655Z,50.50
2018-09-27T07:08:57.329Z,50.40
2018-09-27T07:11:25.405Z,50.10
2018-09-27T07:13:53.017Z,49.70
2018-09-27T07:16:20.682Z,50.30
2018-09-27T07:18:48.434Z,50.20
2018-09-27T07:21:16.539Z,51.20
2018-09-27T07:23:44.366Z,50.50
2018-09-27T07:26:12.464Z,51.00
2018-09-27T07:28:40.227Z,51.30
2018-09-27T07:31:08.312Z,51.20
2018-09-27T07:33:36.023Z,51.40
2018-09-27T07:36:04.182Z,51.10
2018-09-27T07:38:31.934Z,50.60
2018-09-27T07:40:59.615Z,51.30
2018-09-27T07:43:27.221Z,50.60
2018-09-27T07:45:54.916Z,51.20
2018-09-27T07:48:22.675Z,50.10
2018-09-27T07:50:50.535Z,50.30
2018-09-27T07:53:18.218Z,50.10
2018-09-27T07:55:46.042Z,50.80
2018-09-27T07:58:13.813Z,51.00
2018-09-27T08:00:41.673Z,49.80
2018-09-27T08:03:09.528Z,50.20
2018-09-27T08:05:37.600Z,50.50
2018-09-27T08:08:05.940Z,50.40
2018-09-27T08:10:33.608Z,50.20
2018-09-27T08:13:01.295Z,50.00
2018-09-27T08:15:28.982Z,50.10
2018-09-27T08:17:56.701Z,49.90
2018-09-27T08:20:24.363Z,50.20
2018-09-27T08:22:52.084Z,50.00
2018-09-27T08:25:19.794Z,49.30
2018-09-27T08:27:47.599Z,49.80
2018-09-27T08:30:15.208Z,48.90
2018-09-27T08:32:43.389Z,49.10
2018-09-27T08:35:11.016Z,48.70
2018-09-27T08:37:38.756Z,49.00
2018-09-27T08:40:06.628Z,49.10
2018-09-27T08:42:34.337Z,48.40
2018-09-27T08:45:02.241Z,49.30
2018-09-27T08:47:38.409Z,48.60
2018-09-27T08:50:06.405Z,47.80
2018-09-27T08:52:34.031Z,47.20
2018-09-27T08:55:01.734Z,47.90
2018-09-27T08:57:29.607Z,46.00
2018-09-27T08:59:57.447Z,46.20
2018-09-27T09:02:25.185Z,44.80
2018-09-27T09:04:52.824Z,45.40
2018-09-27T09:07:20.796Z,44.10
2018-09-27T09:09:49.576Z,45.10
2018-09-27T09:12:17.309Z,44.50
2018-09-27T09:14:44.913Z,43.90
2018-09-27T09:17:12.659Z,44.30
2018-09-27T09:19:40.373Z,41.90
2018-09-27T09:22:07.993Z,41.80
2018-09-27T09:24:36.150Z,43.00
2018-09-27T09:27:03.893Z,40.70
2018-09-27T09:29:31.692Z,39.70
2018-09-27T09:31:59.376Z,39.30
2018-09-27T09:34:27.087Z,36.10
2018-09-27T09:36:54.817Z,35.90
2018-09-27T09:39:22.484Z,37.00
2018-09-27T09:41:50.151Z,36.60
2018-09-27T09:44:17.746Z,34.50
2018-09-27T09:46:45.541Z,36.30
2018-09-27T09:49:13.257Z,36.90
2018-09-27T09:51:41.084Z,31.70
2018-09-27T09:54:08.694Z,32.30
2018-09-27T09:56:36.601Z,33.60
2018-09-27T09:59:04.540Z,33.00
2018-09-27T10:01:32.269Z,33.90
2018-09-27T10:04:00.356Z,34.80
2018-09-27T10:06:43.214Z,33.70
2018-09-27T10:09:11.260Z,34.90
2018-09-27T10:11:38.999Z,32.80
2018-09-27T10:14:07.008Z,32.30
2018-09-27T10:16:35.037Z,33.30
2018-09-27T10:19:02.680Z,33.60
2018-09-27T10:21:30.440Z,32.70
2018-09-27T10:23:58.164Z,31.50
2018-09-27T10:26:25.768Z,31.80
2018-09-27T10:28:53.427Z,32.70
2018-09-27T10:31:21.082Z,33.20
2018-09-27T10:33:48.787Z,33.70
2018-09-27T10:36:16.412Z,32.70
2018-09-27T10:38:44.089Z,32.10
2018-09-27T10:41:11.867Z,32.80
2018-09-27T10:43:39.724Z,32.80
2018-09-27T10:46:07.426Z,33.40
2018-09-27T10:48:35.229Z,33.90
2018-09-27T10:51:02.900Z,34.30
2018-09-27T10:53:31.148Z,33.80
2018-09-27T10:55:58.970Z,34.20
2018-09-27T10:58:26.614Z,34.50
2018-09-27T11:00:54.343Z,34.30
2018-09-27T11:03:22.284Z,34.70
2018-09-27T11:05:49.979Z,34.30
2018-09-27T11:08:17.726Z,34.70
2018-09-27T11:10:45.433Z,33.90
2018-09-27T11:13:13.175Z,33.60
2018-09-27T11:15:40.855Z,34.30
2018-09-27T11:18:08.572Z,34.30
2018-09-27T11:20:36.261Z,33.20
2018-09-27T11:23:04.034Z,33.20
2018-09-27T11:25:31.879Z,33.10
2018-09-27T11:27:59.705Z,33.10
2018-09-27T11:30:30.234Z,32.50
2018-09-27T11:32:58.492Z,32.20
2018-09-27T11:35:26.268Z,32.80
2018-09-27T11:37:53.972Z,31.90
2018-09-27T11:40:21.743Z,32.10
2018-09-27T11:42:49.464Z,32.90
2018-09-27T11:45:17.087Z,33.00
2018-09-27T11:47:44.768Z,33.40
2018-09-27T11:50:12.600Z,33.00
2018-09-27T11:52:40.899Z,32.70
2018-09-27T11:55:09.096Z,32.10
2018-09-27T11:57:36.858Z,31.90
2018-09-27T12:00:05.157Z,31.10
2018-09-27T12:02:32.851Z,33.20
2018-09-27T12:05:00.632Z,33.90
2018-09-27T12:07:28.598Z,33.40
2018-09-27T12:09:56.389Z,31.40
2018-09-27T12:12:24.484Z,31.70
2018-09-27T12:14:53.145Z,32.40
2018-09-27T12:17:20.940Z,33.00
2018-09-27T12:19:48.668Z,32.50
2018-09-27T12:22:16.380Z,32.10
2018-09-27T12:24:44.029Z,32.80
2018-09-27T12:27:11.741Z,35.50
2018-09-27T12:29:39.593Z,36.00
2018-09-27T12:32:07.325Z,36.30
2018-09-27T12:34:35.114Z,37.00
2018-09-27T12:37:02.902Z,36.20
2018-09-27T12:39:30.646Z,34.20
2018-09-27T12:41:58.915Z,35.20
2018-09-27T12:44:26.511Z,35.90
2018-09-27T12:46:54.323Z,36.70
2018-09-27T12:49:21.995Z,37.10
2018-09-27T12:51:49.902Z,37.70
2018-09-27T12:54:17.554Z,36.90
2018-09-27T12:56:45.333Z,36.40
2018-09-27T12:59:13.328Z,36.30
2018-09-27T13:01:41.588Z,36.90
2018-09-27T13:04:09.783Z,36.10
2018-09-27T13:06:38.126Z,35.50
2018-09-27T13:09:07.819Z,36.10
2018-09-27T13:11:40.641Z,35.30
2018-09-27T13:14:03.855Z,33.90
2018-09-27T13:16:32.163Z,35.10
2018-09-27T13:19:00.363Z,34.30
2018-09-27T13:21:28.389Z,33.00
2018-09-27T13:23:56.624Z,30.40
2018-09-27T13:26:24.698Z,32.20
2018-09-27T13:28:53.218Z,32.10
2018-09-27T13:31:21.219Z,32.10
2018-09-27T13:33:49.453Z,31.60
2018-09-27T13:36:17.425Z,32.30
2018-09-27T13:38:45.460Z,33.80
2018-09-27T13:41:13.466Z,32.30
2018-09-27T13:43:41.475Z,31.30
2018-09-27T13:46:09.742Z,30.30
2018-09-27T13:48:37.871Z,30.10
2018-09-27T13:51:06.230Z,30.60
2018-09-27T13:53:34.236Z,29.60
2018-09-27T13:56:02.344Z,28.90
2018-09-27T13:58:30.609Z,28.70
2018-09-27T14:00:59.908Z,28.00
2018-09-27T14:03:27.984Z,26.40
2018-09-27T14:06:05.673Z,26.20
2018-09-27T14:08:41.218Z,25.30
2018-09-27T14:27:08.099Z,24.70
2018-09-27T14:29:35.746Z,24.30
2018-09-27T14:32:03.517Z,23.40
2018-09-27T14:34:31.115Z,24.30
2018-09-27T14:36:59.108Z,24.20
2018-09-27T14:39:26.793Z,24.30
2018-09-27T14:41:54.414Z,24.20
2018-09-27T14:44:23.051Z,24.00
2018-09-27T14:46:50.724Z,24.10
2018-09-27T14:49:18.363Z,22.80
2018-09-27T14:51:45.981Z,23.30
2018-09-27T14:54:13.553Z,23.20
2018-09-27T14:56:41.211Z,23.60
2018-09-27T14:59:08.828Z,23.90
2018-09-27T15:01:37.602Z,23.40
2018-09-27T15:04:06.241Z,23.80
2018-09-27T15:06:33.905Z,24.90
2018-09-27T15:09:01.624Z,25.40
2018-09-27T15:11:29.583Z,25.80
2018-09-27T15:13:57.191Z,25.40
2018-09-27T15:16:24.974Z,25.20
2018-09-27T15:18:52.651Z,25.00
2018-09-27T15:21:20.214Z,25.40
2018-09-27T15:23:47.831Z,25.50
2018-09-27T15:26:15.448Z,25.70
2018-09-27T15:28:43.059Z,25.20
2018-09-27T15:31:10.778Z,25.10
2018-09-27T15:33:38.762Z,25.70
2018-09-27T15:36:06.492Z,25.50
2018-09-27T15:38:34.155Z,26.20
2018-09-27T15:41:01.779Z,26.40
2018-09-27T15:43:29.516Z,24.90
2018-09-27T15:45:57.174Z,25.30
2018-09-27T15:48:24.781Z,25.00
2018-09-27T15:50:52.381Z,25.80
2018-09-27T15:53:20.333Z,26.20
2018-09-27T15:55:47.955Z,26.30
2018-09-27T15:58:15.639Z,26.20
2018-09-27T16:00:43.296Z,25.60
2018-09-27T16:03:10.981Z,24.50
2018-09-27T16:05:38.820Z,24.50
2018-09-27T16:08:06.587Z,23.90
2018-09-27T16:10:34.235Z,24.20
2018-09-27T16:13:01.898Z,23.90
2018-09-27T16:15:29.620Z,24.80
2018-09-27T16:17:58.396Z,25.10
2018-09-27T16:20:25.994Z,25.60
2018-09-27T16:22:59.965Z,24.80
2018-09-27T16:25:27.703Z,24.30
2018-09-27T16:27:55.356Z,25.20
2018-09-27T16:30:23.074Z,25.20
2018-09-27T16:32:51.074Z,25.30
2018-09-27T16:35:18.715Z,25.10
2018-09-27T16:37:46.470Z,25.30
2018-09-27T16:40:14.253Z,25.90
2018-09-27T16:42:41.820Z,26.00
2018-09-27T16:45:09.456Z,26.40
2018-09-27T16:47:37.360Z,26.60
2018-09-27T16:50:05.150Z,26.80
2018-09-27T16:52:32.972Z,27.20
2018-09-27T16:55:00.709Z,27.50
2018-09-27T16:57:28.356Z,28.00
2018-09-27T16:59:56.027Z,28.50
2018-09-27T17:02:23.656Z,29.00
2018-09-27T17:04:51.377Z,29.10
2018-09-27T17:07:19.047Z,29.40
2018-09-27T17:09:46.988Z,30.00
2018-09-27T17:12:14.815Z,30.00
2018-09-27T17:14:42.583Z,30.20
2018-09-27T17:17:10.333Z,30.40
2018-09-27T17:19:38.078Z,30.20
2018-09-27T17:22:05.987Z,30.40
2018-09-27T17:24:33.655Z,30.90
2018-09-27T17:27:01.465Z,31.60
2018-09-27T17:29:29.219Z,31.70
2018-09-27T17:31:56.841Z,32.00
2018-09-27T17:34:24.501Z,32.40
2018-09-27T17:36:52.344Z,32.50
2018-09-27T17:39:20.134Z,32.40
2018-09-27T17:41:47.851Z,33.30
2018-09-27T17:44:15.537Z,33.60
2018-09-27T17:46:43.255Z,33.70
2018-09-27T17:49:11.041Z,33.90
2018-09-27T17:51:38.714Z,34.20
2018-09-27T17:54:06.676Z,34.30
2018-09-27T17:56:34.451Z,34.60
2018-09-27T17:59:02.665Z,34.70
2018-09-27T18:01:30.396Z,34.90
2018-09-27T18:03:58.225Z,35.40
2018-09-27T18:06:26.220Z,35.90
2018-09-27T18:08:54.188Z,36.30
2018-09-27T18:11:21.865Z,36.40
2018-09-27T18:13:49.623Z,37.30
2018-09-27T18:16:17.265Z,37.50
2018-09-27T18:18:44.902Z,37.60
2018-09-27T18:21:12.952Z,38.00
2018-09-27T18:23:40.694Z,38.70
2018-09-27T18:26:08.286Z,38.90
2018-09-27T18:28:35.968Z,39.70
2018-09-27T18:31:04.062Z,40.00
2018-09-27T18:33:31.699Z,39.60
2018-09-27T18:35:59.586Z,39.80
2018-09-27T18:38:27.250Z,39.40
2018-09-27T18:40:55.283Z,39.30
2018-09-27T18:43:22.860Z,39.70
2018-09-27T18:45:50.808Z,39.90
2018-09-27T18:48:18.546Z,40.00
2018-09-27T18:50:46.280Z,39.60
2018-09-27T18:53:14.790Z,39.80
2018-09-27T18:55:42.486Z,39.90
2018-09-27T18:58:10.106Z,39.90
2018-09-27T19:00:37.879Z,39.80
2018-09-27T19:03:05.516Z,40.50
2018-09-27T19:05:33.407Z,40.70
2018-09-27T19:08:01.210Z,40.80
2018-09-27T19:10:29.076Z,41.30
2018-09-27T19:12:57.088Z,41.30
2018-09-27T19:15:25.198Z,41.60
2018-09-27T19:17:52.894Z,42.10
2018-09-27T19:20:20.714Z,42.80
2018-09-27T19:22:48.611Z,42.60
2018-09-27T19:25:16.828Z,42.70
2018-09-27T19:27:44.813Z,42.80
2018-09-27T19:30:12.702Z,42.40
2018-09-27T19:32:40.637Z,42.50
2018-09-27T19:35:08.357Z,42.30
2018-09-27T19:37:36.363Z,42.30
2018-09-27T19:40:04.085Z,42.40
2018-09-27T19:42:31.728Z,42.40
2018-09-27T19:44:59.580Z,42.60
2018-09-27T19:47:27.626Z,42.70
2018-09-27T19:49:55.234Z,43.00
2018-09-27T19:52:22.959Z,43.30
2018-09-27T19:54:50.590Z,43.60
2018-09-27T19:57:18.288Z,43.60
2018-09-27T19:59:46.146Z,43.70
2018-09-27T20:02:13.882Z,43.70
2018-09-27T20:04:41.734Z,43.80
2018-09-27T20:07:09.442Z,43.80
2018-09-27T20:09:37.092Z,43.80
2018-09-27T20:12:04.939Z,43.80
2018-09-27T20:14:32.633Z,43.80
2018-09-27T20:17:00.346Z,44.20
2018-09-27T20:19:28.057Z,44.20
2018-09-27T20:21:55.760Z,44.60
2018-09-27T20:24:23.476Z,44.90
2018-09-27T20:26:51.161Z,45.20
2018-09-27T20:29:19.354Z,45.50
2018-09-27T20:31:47.256Z,46.10
2018-09-27T20:34:15.248Z,46.20
2018-09-27T20:36:43.416Z,46.60
2018-09-27T20:39:11.732Z,47.10
2018-09-27T20:41:39.756Z,47.20
2018-09-27T20:44:08.454Z,47.50
2018-09-27T20:46:37.172Z,47.50
2018-09-27T20:49:04.938Z,47.50
2018-09-27T20:51:33.040Z,47.50
2018-09-27T20:54:00.795Z,47.50
2018-09-27T20:56:28.432Z,47.70
2018-09-27T20:58:56.577Z,47.70
2018-09-27T21:01:24.280Z,48.20
2018-09-27T21:03:51.912Z,48.10
2018-09-27T21:06:19.779Z,48.30
2018-09-27T21:08:47.631Z,48.20
2018-09-27T21:11:15.621Z,48.30
2018-09-27T21:13:43.333Z,48.50
2018-09-27T21:16:11.063Z,48.80
2018-09-27T21:18:39.030Z,48.80
2018-09-27T21:21:06.800Z,49.20
2018-09-27T21:23:34.430Z,49.30
2018-09-27T21:26:02.157Z,49.60
2018-09-27T21:28:29.798Z,49.80
2018-09-27T21:30:57.395Z,49.90
2018-09-27T21:33:25.210Z,50.20
2018-09-27T21:35:52.950Z,50.30
2018-09-27T21:38:20.563Z,50.20
2018-09-27T21:40:48.228Z,50.30
2018-09-27T21:43:15.926Z,51.00
2018-09-27T21:45:43.592Z,50.60
2018-09-27T21:48:11.236Z,50.80
2018-09-27T21:50:38.896Z,50.50
2018-09-27T21:53:06.631Z,50.20
2018-09-27T21:55:34.338Z,50.10
2018-09-27T21:58:02.106Z,50.40
2018-09-27T22:00:29.834Z,50.70
2018-09-27T22:02:57.501Z,50.90
2018-09-27T22:05:25.288Z,51.10
2018-09-27T22:07:52.980Z,51.40
2018-09-27T22:10:20.798Z,51.60
2018-09-27T22:12:48.646Z,51.50
2018-09-27T22:15:16.844Z,51.50
2018-09-27T22:17:44.630Z,51.60
2018-09-27T22:20:12.212Z,51.80
2018-09-27T22:22:39.821Z,52.10
2018-09-27T22:25:08.003Z,52.10
2018-09-27T22:27:36.564Z,52.30
2018-09-27T22:30:04.952Z,52.30
2018-09-27T22:32:33.356Z,52.30
2018-09-27T22:35:01.469Z,52.40
2018-09-27T22:37:29.615Z,52.40
2018-09-27T22:39:57.593Z,52.40
2018-09-27T22:42:25.547Z,52.30
2018-09-27T22:44:53.554Z,52.50
2018-09-27T22:47:21.616Z,52.70
2018-09-27T22:49:49.589Z,53.00
2018-09-27T22:52:17.741Z,53.00
2018-09-27T22:54:45.707Z,53.00
2018-09-27T22:57:14.049Z,53.30
2018-09-27T22:59:42.123Z,53.30
2018-09-27T23:02:10.279Z,53.50
2018-09-27T23:04:38.296Z,53.40
2018-09-27T23:07:06.350Z,53.60
2018-09-27T23:09:34.533Z,53.70
2018-09-27T23:12:02.498Z,53.80
2018-09-27T23:14:30.632Z,54.00
2018-09-27T23:16:58.687Z,54.00
2018-09-27T23:19:26.652Z,54.10
2018-09-27T23:21:54.743Z,54.00
2018-09-27T23:24:23.159Z,54.30
2018-09-27T23:26:51.217Z,54.40
2018-09-27T23:29:19.170Z,54.50
2018-09-27T23:31:47.255Z,54.60
2018-09-27T23:34:15.251Z,55.10
2018-09-27T23:36:43.168Z,55.70
2018-09-27T23:39:11.267Z,55.20
2018-09-27T23:41:39.714Z,55.40
2018-09-27T23:44:08.983Z,56.20
2018-09-27T23:46:37.235Z,55.70
2018-09-27T23:49:05.555Z,55.90
2018-09-27T23:51:33.591Z,55.90
2018-09-27T23:54:01.550Z,56.30
2018-09-27T23:56:29.678Z,56.60
2018-09-27T23:58:57.703Z,57.00
